Time;durP1;ratioP1;P1;durP2;ratioP2;P2;SDS_P1;SDS_P2;PMS_P1;PMS_P2;Temp;Humidity;BMP_temperature;BMP_pressure;BME280_temperature;BME280_humidity;BME280_pressure;Samples;Min_cycle;Max_cycle;Signal;HPM_P1;HPM_P2
2022/08/16 00:01:27;;;;;;;2.35;1.45;;;;;;;;;;10585742;28;20166;-71
2022/08/16 00:06:36;;;;;;;4.57;1.70;;;;;;;;;;10584287;28;20093;-72
2022/08/16 00:11:42;;;;;;;1.67;1.25;;;;;;;;;;10595599;27;20032;-72
2022/08/16 00:16:49;;;;;;;1.88;1.42;;;;;;;;;;10576809;28;20519;-72
2022/08/16 00:22:12;;;;;;;3.50;1.80;;;;;;;;;;10583875;28;20027;-72
2022/08/16 00:27:17;;;;;;;4.20;2.00;;;;;;;;;;10576309;28;20047;-73
2022/08/16 00:32:22;;;;;;;2.40;1.50;;;;;;;;;;10584584;27;20039;-74
2022/08/16 00:37:26;;;;;;;3.42;1.67;;;;;;;;;;10579779;27;20043;-74
2022/08/16 00:42:49;;;;;;;3.95;1.85;;;;;;;;;;10589628;27;20044;-72
2022/08/16 00:47:57;;;;;;;2.38;1.50;;;;;;;;;;10581992;27;20040;-72
2022/08/16 00:53:00;;;;;;;4.30;1.77;;;;;;;;;;10602009;27;20035;-74
2022/08/16 00:58:03;;;;;;;4.63;1.52;;;;;;;;;;10595119;27;20139;-74
2022/08/16 01:03:21;;;;;;;2.72;1.88;;;;;;;;;;10592887;27;20484;-74
2022/08/16 01:08:35;;;;;;;4.28;2.00;;;;;;;;;;10587813;27;20102;-73
2022/08/16 01:13:50;;;;;;;3.22;1.80;;;;;;;;;;10585989;27;20115;-74
2022/08/16 01:19:20;;;;;;;2.13;1.30;;;;;;;;;;10584917;27;20051;-73
2022/08/16 01:24:33;;;;;;;1.75;1.10;;;;;;;;;;10586822;27;20088;-74
2022/08/16 01:30:07;;;;;;;5.43;1.77;;;;;;;;;;10584971;27;20035;-73
2022/08/16 01:35:45;;;;;;;2.63;1.70;;;;;;;;;;10587795;27;20048;-73
2022/08/16 01:41:01;;;;;;;2.30;1.58;;;;;;;;;;10587279;27;20043;-73
2022/08/16 01:46:20;;;;;;;2.42;1.15;;;;;;;;;;10582210;27;20537;-74
2022/08/16 01:51:51;;;;;;;3.08;1.70;;;;;;;;;;10590299;27;20050;-73
2022/08/16 01:56:57;;;;;;;2.28;1.67;;;;;;;;;;10587293;27;20031;-73
2022/08/16 02:02:00;;;;;;;2.33;1.35;;;;;;;;;;10585775;27;20043;-73
2022/08/16 02:07:08;;;;;;;3.38;1.50;;;;;;;;;;10578150;27;20477;-73
2022/08/16 02:12:18;;;;;;;4.07;1.45;;;;;;;;;;10587349;28;20028;-73
2022/08/16 02:17:42;;;;;;;2.20;1.48;;;;;;;;;;10581430;27;20031;-73
2022/08/16 02:22:46;;;;;;;2.88;1.42;;;;;;;;;;10591757;27;20570;-73
2022/08/16 02:27:52;;;;;;;2.45;1.55;;;;;;;;;;10579129;27;20059;-73
2022/08/16 02:32:54;;;;;;;2.78;1.58;;;;;;;;;;10590424;27;20115;-73
2022/08/16 02:37:59;;;;;;;3.70;1.42;;;;;;;;;;10583865;28;20543;-73
2022/08/16 02:43:12;;;;;;;2.33;1.40;;;;;;;;;;10597607;27;20036;-73
2022/08/16 02:48:16;;;;;;;1.70;1.40;;;;;;;;;;10601721;27;20039;-73
2022/08/16 02:53:32;;;;;;;2.58;1.40;;;;;;;;;;10588770;27;20071;-73
2022/08/16 02:58:38;;;;;;;1.83;1.30;;;;;;;;;;10573004;27;20070;-72
2022/08/16 03:03:42;;;;;;;3.67;1.40;;;;;;;;;;10583732;27;20035;-72
2022/08/16 03:09:05;;;;;;;2.60;1.55;;;;;;;;;;10585693;27;20032;-72
2022/08/16 03:14:16;;;;;;;3.53;1.70;;;;;;;;;;10578576;27;20100;-73
2022/08/16 03:19:26;;;;;;;2.58;1.60;;;;;;;;;;10586727;27;20043;-72
2022/08/16 03:24:49;;;;;;;2.83;1.48;;;;;;;;;;10582065;27;20411;-73
2022/08/16 03:29:53;;;;;;;1.23;1.00;;;;;;;;;;10582672;27;20502;-74
2022/08/16 03:34:57;;;;;;;3.33;1.10;;;;;;;;;;10578427;27;20036;-73
2022/08/16 03:40:00;;;;;;;;;;;;;;;;;;10584308;27;20036;-73
2022/08/16 03:45:08;;;;;;;4.00;1.73;;;;;;;;;;10589168;28;19971;-72
2022/08/16 03:50:11;;;;;;;2.20;1.38;;;;;;;;;;10576160;28;20159;-73
2022/08/16 03:55:28;;;;;;;2.40;1.45;;;;;;;;;;10581522;28;20460;-74
2022/08/16 04:00:49;;;;;;;3.55;1.35;;;;;;;;;;10582137;28;20055;-73
2022/08/16 04:06:01;;;;;;;2.35;1.50;;;;;;;;;;10583273;28;20507;-75
2022/08/16 04:11:05;;;;;;;2.00;1.33;;;;;;;;;;10579597;28;20039;-75
2022/08/16 04:16:16;;;;;;;3.03;1.60;;;;;;;;;;10571690;28;20054;-74
2022/08/16 04:21:29;;;;;;;2.50;1.70;;;;;;;;;;10580032;28;20047;-73
2022/08/16 04:26:33;;;;;;;2.25;1.38;;;;;;;;;;10594428;28;20443;-74
2022/08/16 04:31:39;;;;;;;2.97;1.88;;;;;;;;;;10580863;28;20043;-74
2022/08/16 04:36:45;;;;;;;2.78;1.65;;;;;;;;;;10580158;28;20044;-73
2022/08/16 04:41:50;;;;;;;1.80;0.98;;;;;;;;;;10585305;28;20092;-73
2022/08/16 04:47:00;;;;;;;3.03;1.83;;;;;;;;;;10586492;28;20123;-72
2022/08/16 04:52:24;;;;;;;4.18;2.08;;;;;;;;;;10583184;28;20580;-73
2022/08/16 04:57:37;;;;;;;3.13;1.88;;;;;;;;;;10583490;28;20051;-72
2022/08/16 05:02:42;;;;;;;4.88;1.90;;;;;;;;;;10575385;28;20043;-74
2022/08/16 05:07:47;;;;;;;2.88;1.40;;;;;;;;;;10581997;28;20048;-74
2022/08/16 05:13:04;;;;;;;3.35;1.08;;;;;;;;;;10581869;28;20207;-72
2022/08/16 05:18:09;;;;;;;3.10;1.75;;;;;;;;;;10582064;27;20043;-73
2022/08/16 05:23:18;;;;;;;3.05;1.95;;;;;;;;;;10592438;27;20095;-72
2022/08/16 05:28:22;;;;;;;5.88;2.20;;;;;;;;;;10588873;27;20105;-73
2022/08/16 05:33:40;;;;;;;3.97;1.90;;;;;;;;;;10588380;27;20035;-74
2022/08/16 05:38:44;;;;;;;3.30;2.00;;;;;;;;;;10590447;27;20039;-75
2022/08/16 05:43:47;;;;;;;2.03;1.42;;;;;;;;;;10592037;27;20067;-74
2022/08/16 05:48:52;;;;;;;1.55;1.17;;;;;;;;;;10586180;27;20484;-73
2022/08/16 05:53:57;;;;;;;6.35;1.98;;;;;;;;;;10585502;27;20044;-74
2022/08/16 05:59:02;;;;;;;3.50;2.28;;;;;;;;;;10593409;27;20049;-74
2022/08/16 06:04:10;;;;;;;3.10;1.90;;;;;;;;;;10584736;27;20043;-74
2022/08/16 06:09:35;;;;;;;12.35;2.40;;;;;;;;;;10585374;27;20032;-72
2022/08/16 06:14:45;;;;;;;8.98;2.22;;;;;;;;;;10588689;27;20028;-72
2022/08/16 06:19:54;;;;;;;4.78;2.38;;;;;;;;;;10593431;27;20327;-73
2022/08/16 06:24:57;;;;;;;3.08;1.90;;;;;;;;;;10587427;27;20047;-73
2022/08/16 06:30:02;;;;;;;1.65;1.30;;;;;;;;;;10590816;27;20069;-74
2022/08/16 06:35:08;;;;;;;4.60;2.10;;;;;;;;;;10584601;27;20039;-74
2022/08/16 06:40:12;;;;;;;0.98;0.93;;;;;;;;;;10586626;27;20119;-74
2022/08/16 06:45:17;;;;;;;3.25;1.95;;;;;;;;;;10584522;28;20036;-74
2022/08/16 06:50:23;;;;;;;4.18;2.10;;;;;;;;;;10587146;27;20202;-74
2022/08/16 06:55:30;;;;;;;1.80;1.38;;;;;;;;;;10579639;27;20039;-74
2022/08/16 07:00:37;;;;;;;4.07;2.33;;;;;;;;;;10585063;27;20035;-73
2022/08/16 07:05:46;;;;;;;6.15;2.20;;;;;;;;;;10590374;27;20032;-74
2022/08/16 07:10:49;;;;;;;3.88;2.40;;;;;;;;;;10584738;27;20341;-74
2022/08/16 07:15:52;;;;;;;3.20;2.08;;;;;;;;;;10587835;27;20048;-73
2022/08/16 07:20:57;;;;;;;3.80;2.45;;;;;;;;;;10582134;27;20369;-73
2022/08/16 07:26:04;;;;;;;3.28;2.28;;;;;;;;;;10585456;27;20209;-73
2022/08/16 07:31:07;;;;;;;3.50;2.22;;;;;;;;;;10582409;27;20032;-73
2022/08/16 07:36:17;;;;;;;2.50;1.90;;;;;;;;;;10586438;27;20031;-73
2022/08/16 07:41:23;;;;;;;4.75;2.33;;;;;;;;;;10583853;27;20099;-73
2022/08/16 07:46:28;;;;;;;3.78;2.20;;;;;;;;;;10600245;27;20103;-74
2022/08/16 07:51:43;;;;;;;3.65;2.40;;;;;;;;;;10582879;27;20063;-73
2022/08/16 07:56:46;;;;;;;4.25;2.58;;;;;;;;;;10583902;28;20031;-74
2022/08/16 08:01:50;;;;;;;4.95;2.60;;;;;;;;;;10579238;28;20039;-74
2022/08/16 08:06:56;;;;;;;3.67;2.50;;;;;;;;;;10578659;28;20492;-74
2022/08/16 08:12:00;;;;;;;3.88;2.50;;;;;;;;;;10584541;28;20032;-74
2022/08/16 08:17:07;;;;;;;4.18;2.38;;;;;;;;;;10580140;28;20035;-74
2022/08/16 08:22:12;;;;;;;3.13;2.33;;;;;;;;;;10587734;28;20064;-74
2022/08/16 08:27:23;;;;;;;5.72;2.90;;;;;;;;;;10588038;28;20048;-73
2022/08/16 08:32:27;;;;;;;3.70;2.88;;;;;;;;;;10583566;28;20163;-74
2022/08/16 08:37:51;;;;;;;3.50;2.67;;;;;;;;;;10581446;28;20052;-74
2022/08/16 08:42:59;;;;;;;3.75;2.58;;;;;;;;;;10583811;28;20036;-74
2022/08/16 08:48:19;;;;;;;4.72;2.70;;;;;;;;;;10584893;28;20072;-74
2022/08/16 08:53:38;;;;;;;4.60;2.90;;;;;;;;;;10606153;27;20039;-75
2022/08/16 08:58:42;;;;;;;7.22;3.00;;;;;;;;;;10590373;27;20439;-74
2022/08/16 09:04:02;;;;;;;5.13;3.17;;;;;;;;;;10595105;27;20091;-74
2022/08/16 09:09:08;;;;;;;4.75;2.80;;;;;;;;;;10593510;27;20049;-74
2022/08/16 09:14:18;;;;;;;4.53;2.95;;;;;;;;;;10594439;27;20039;-74
2022/08/16 09:19:26;;;;;;;4.63;3.20;;;;;;;;;;10592191;27;20039;-74
2022/08/16 09:24:38;;;;;;;4.00;2.83;;;;;;;;;;10593000;27;20649;-74
2022/08/16 09:29:55;;;;;;;5.68;3.10;;;;;;;;;;10592206;27;20042;-74
2022/08/16 09:35:04;;;;;;;4.32;3.33;;;;;;;;;;10595943;27;20036;-74
2022/08/16 09:40:10;;;;;;;12.32;9.60;;;;;;;;;;10589158;27;20032;-74
2022/08/16 09:45:37;;;;;;;5.65;5.03;;;;;;;;;;10591558;27;20092;-74
2022/08/16 09:50:41;;;;;;;4.43;4.03;;;;;;;;;;10584936;27;20471;-73
2022/08/16 09:55:48;;;;;;;3.55;3.20;;;;;;;;;;10590181;27;20322;-74
2022/08/16 10:00:52;;;;;;;7.20;3.40;;;;;;;;;;10589565;27;20047;-74
2022/08/16 10:05:58;;;;;;;3.95;3.55;;;;;;;;;;10596749;27;20069;-74
2022/08/16 10:16:27;;;;;;;5.00;3.15;;;;;;;;;;10604606;27;20369;-73
2022/08/16 10:21:31;;;;;;;5.63;3.40;;;;;;;;;;10592072;27;20103;-74
2022/08/16 10:26:37;;;;;;;3.35;3.05;;;;;;;;;;10589139;27;20048;-74
2022/08/16 10:32:00;;;;;;;4.65;3.17;;;;;;;;;;10583322;27;20042;-74
2022/08/16 10:37:05;;;;;;;8.88;4.20;;;;;;;;;;10579291;27;20047;-73
2022/08/16 10:42:17;;;;;;;3.22;2.65;;;;;;;;;;10580404;27;20358;-73
2022/08/16 10:47:25;;;;;;;3.70;3.33;;;;;;;;;;10581152;27;20496;-74
2022/08/16 10:52:35;;;;;;;4.00;3.25;;;;;;;;;;10588196;27;20031;-74
2022/08/16 10:57:45;;;;;;;5.65;3.72;;;;;;;;;;10584416;27;20028;-74
2022/08/16 11:02:50;;;;;;;4.40;3.13;;;;;;;;;;10597430;27;20046;-74
2022/08/16 11:08:04;;;;;;;3.85;3.40;;;;;;;;;;10583836;27;20074;-73
2022/08/16 11:13:10;;;;;;;6.72;3.30;;;;;;;;;;10608139;27;20031;-74
2022/08/16 11:18:33;;;;;;;6.75;3.40;;;;;;;;;;10583833;27;20031;-73
2022/08/16 11:23:56;;;;;;;5.95;2.60;;;;;;;;;;10590010;27;20032;-73
2022/08/16 11:29:03;;;;;;;4.18;2.60;;;;;;;;;;10586649;27;20059;-74
2022/08/16 11:34:21;;;;;;;4.70;3.00;;;;;;;;;;10589879;28;20122;-74
2022/08/16 11:39:26;;;;;;;4.35;3.05;;;;;;;;;;10585335;27;20043;-73
2022/08/16 11:44:32;;;;;;;3.30;2.80;;;;;;;;;;10580502;28;20049;-74
2022/08/16 11:49:56;;;;;;;2.72;2.53;;;;;;;;;;10590444;27;20123;-73
2022/08/16 11:54:59;;;;;;;2.78;2.47;;;;;;;;;;10599937;27;20057;-74
2022/08/16 12:00:10;;;;;;;4.55;2.60;;;;;;;;;;10591422;27;20044;-74
2022/08/16 12:05:33;;;;;;;4.07;3.15;;;;;;;;;;10588151;28;20042;-75
2022/08/16 12:10:37;;;;;;;3.17;2.60;;;;;;;;;;10579613;28;20039;-75
2022/08/16 12:15:42;;;;;;;3.97;2.97;;;;;;;;;;10580103;28;20493;-73
2022/08/16 12:20:49;;;;;;;3.00;2.70;;;;;;;;;;10579074;28;20035;-73
2022/08/16 12:25:52;;;;;;;6.22;4.40;;;;;;;;;;10592756;27;20035;-74
2022/08/16 12:30:56;;;;;;;5.32;3.20;;;;;;;;;;10597139;27;20055;-75
2022/08/16 12:36:00;;;;;;;3.25;2.97;;;;;;;;;;10587373;27;20039;-74
2022/08/16 12:41:04;;;;;;;3.05;2.85;;;;;;;;;;10592612;27;20043;-74
2022/08/16 12:46:11;;;;;;;4.75;2.97;;;;;;;;;;10593494;27;20036;-73
2022/08/16 12:51:16;;;;;;;3.85;2.60;;;;;;;;;;10596117;27;20055;-74
2022/08/16 12:56:27;;;;;;;4.32;3.10;;;;;;;;;;10592222;27;20421;-73
2022/08/16 13:01:33;;;;;;;4.15;2.40;;;;;;;;;;10606729;27;20571;-74
2022/08/16 13:06:36;;;;;;;5.22;2.70;;;;;;;;;;10584710;27;20066;-74
2022/08/16 13:11:47;;;;;;;4.43;2.78;;;;;;;;;;10587480;27;20047;-74
2022/08/16 13:17:01;;;;;;;4.53;2.80;;;;;;;;;;10586264;27;20066;-73
2022/08/16 13:22:06;;;;;;;3.40;2.60;;;;;;;;;;10596936;27;20054;-74
2022/08/16 13:27:14;;;;;;;4.97;3.10;;;;;;;;;;10592185;27;20122;-73
2022/08/16 13:32:20;;;;;;;4.30;2.65;;;;;;;;;;10591644;27;20051;-74
2022/08/16 13:37:43;;;;;;;4.15;2.60;;;;;;;;;;10595586;27;20047;-73
2022/08/16 13:42:46;;;;;;;2.67;2.13;;;;;;;;;;10593092;27;20526;-74
2022/08/16 13:47:52;;;;;;;2.75;2.47;;;;;;;;;;10584853;27;20036;-75
2022/08/16 13:52:57;;;;;;;2.40;2.20;;;;;;;;;;10593705;27;20043;-75
2022/08/16 13:58:00;;;;;;;5.03;2.47;;;;;;;;;;10587927;28;20051;-74
2022/08/16 14:03:26;;;;;;;3.83;2.80;;;;;;;;;;10587275;27;20126;-74
2022/08/16 14:08:31;;;;;;;3.40;2.63;;;;;;;;;;10593505;27;20044;-73
2022/08/16 14:13:34;;;;;;;4.63;3.10;;;;;;;;;;10587587;28;20126;-74
2022/08/16 14:18:39;;;;;;;4.47;2.53;;;;;;;;;;10589723;27;20032;-75
2022/08/16 14:23:43;;;;;;;5.68;2.50;;;;;;;;;;10583980;27;20071;-74
2022/08/16 14:28:49;;;;;;;4.43;2.60;;;;;;;;;;10592675;27;20104;-74
2022/08/16 14:33:53;;;;;;;3.67;2.70;;;;;;;;;;10586520;27;20063;-74
2022/08/16 14:38:58;;;;;;;2.78;2.47;;;;;;;;;;10596241;27;20035;-75
2022/08/16 14:44:01;;;;;;;5.28;2.53;;;;;;;;;;10588110;27;20470;-74
2022/08/16 14:49:06;;;;;;;5.13;2.90;;;;;;;;;;10588729;27;20097;-74
2022/08/16 14:54:10;;;;;;;4.55;3.03;;;;;;;;;;10578707;28;20085;-75
2022/08/16 14:59:17;;;;;;;8.52;2.90;;;;;;;;;;10606935;27;20291;-74
2022/08/16 15:04:22;;;;;;;4.45;2.78;;;;;;;;;;10589654;27;20050;-74
2022/08/16 15:09:43;;;;;;;5.90;3.00;;;;;;;;;;10585095;27;20040;-74
2022/08/16 15:15:05;;;;;;;3.17;2.20;;;;;;;;;;10593789;27;20042;-73
2022/08/16 15:20:16;;;;;;;6.73;2.50;;;;;;;;;;10589387;27;20040;-74
2022/08/16 15:25:26;;;;;;;3.30;2.45;;;;;;;;;;10584364;27;20032;-74
2022/08/16 15:30:34;;;;;;;5.85;2.47;;;;;;;;;;10589008;28;20139;-74
2022/08/16 15:35:59;;;;;;;3.63;2.50;;;;;;;;;;10585215;28;20074;-73
2022/08/16 15:41:02;;;;;;;6.55;2.80;;;;;;;;;;10587297;28;20070;-74
2022/08/16 15:46:24;;;;;;;6.13;2.70;;;;;;;;;;10582156;28;20057;-73
2022/08/16 15:51:49;;;;;;;3.50;2.70;;;;;;;;;;10582999;27;20036;-72
2022/08/16 15:56:56;;;;;;;5.30;2.42;;;;;;;;;;10579184;28;20286;-74
2022/08/16 16:02:11;;;;;;;5.82;3.78;;;;;;;;;;10582090;27;20377;-73
2022/08/16 16:07:17;;;;;;;4.65;2.80;;;;;;;;;;10579077;28;20037;-73
2022/08/16 16:12:20;;;;;;;6.10;4.00;;;;;;;;;;10575108;28;20032;-74
2022/08/16 16:17:43;;;;;;;4.32;2.70;;;;;;;;;;10583252;28;20043;-73
2022/08/16 16:22:54;;;;;;;3.35;2.83;;;;;;;;;;10581204;28;20823;-75
2022/08/16 16:27:58;;;;;;;5.38;2.95;;;;;;;;;;10579281;28;20036;-75
2022/08/16 16:33:02;;;;;;;6.53;2.97;;;;;;;;;;10578909;28;20046;-75
2022/08/16 16:38:06;;;;;;;10.48;3.40;;;;;;;;;;10576161;28;20050;-74
2022/08/16 16:43:10;;;;;;;5.35;2.90;;;;;;;;;;10582900;28;20043;-74
2022/08/16 16:48:17;;;;;;;3.50;2.85;;;;;;;;;;10589163;28;20052;-74
2022/08/16 16:53:21;;;;;;;4.47;3.28;;;;;;;;;;10586319;28;20527;-74
2022/08/16 17:03:56;;;;;;;5.68;2.85;;;;;;;;;;10583787;28;20035;-74
2022/08/16 17:09:01;;;;;;;3.85;2.88;;;;;;;;;;10581161;28;20392;-75
2022/08/16 17:14:06;;;;;;;6.53;3.33;;;;;;;;;;10591671;27;20182;-75
2022/08/16 17:19:21;;;;;;;6.85;3.13;;;;;;;;;;10595025;27;20042;-74
2022/08/16 17:24:27;;;;;;;7.20;3.40;;;;;;;;;;10597151;27;20035;-75
2022/08/16 17:29:42;;;;;;;4.03;3.13;;;;;;;;;;10594412;27;20085;-74
2022/08/16 17:34:50;;;;;;;4.70;3.20;;;;;;;;;;10599240;27;20043;-74
2022/08/16 17:39:55;;;;;;;6.38;3.38;;;;;;;;;;10592372;27;20040;-74
2022/08/16 17:45:18;;;;;;;5.15;3.28;;;;;;;;;;10587575;27;20097;-75
2022/08/16 17:50:22;;;;;;;8.63;4.53;;;;;;;;;;10586456;27;20481;-74
2022/08/16 17:55:29;;;;;;;12.57;4.07;;;;;;;;;;10593979;27;20055;-74
2022/08/16 18:00:32;;;;;;;5.75;3.90;;;;;;;;;;10585675;27;20044;-74
2022/08/16 18:05:37;;;;;;;9.05;3.50;;;;;;;;;;10591155;28;20035;-74
2022/08/16 18:10:41;;;;;;;4.22;2.95;;;;;;;;;;10602174;27;20048;-74
2022/08/16 18:15:44;;;;;;;6.03;3.70;;;;;;;;;;10590804;27;20126;-74
2022/08/16 18:26:09;;;;;;;8.88;3.65;;;;;;;;;;10594314;27;20169;-74
2022/08/16 18:31:12;;;;;;;8.38;4.07;;;;;;;;;;10599202;27;20092;-74
2022/08/16 18:36:14;;;;;;;;;;;;;;;;;;10589282;27;20040;-74
2022/08/16 18:41:24;;;;;;;6.18;3.70;;;;;;;;;;10596118;27;20002;-74
2022/08/16 18:46:27;;;;;;;6.50;4.10;;;;;;;;;;10602323;27;20115;-74
2022/08/16 18:51:31;;;;;;;7.28;3.90;;;;;;;;;;10593544;27;20044;-74
2022/08/16 18:56:37;;;;;;;6.40;3.90;;;;;;;;;;10591871;27;20027;-74
2022/08/16 19:01:59;;;;;;;6.65;4.07;;;;;;;;;;10587657;28;20028;-74
2022/08/16 19:07:09;;;;;;;7.32;4.20;;;;;;;;;;10578988;28;20039;-74
2022/08/16 19:12:13;;;;;;;7.95;4.63;;;;;;;;;;10587012;28;20100;-75
2022/08/16 19:17:18;;;;;;;10.52;5.43;;;;;;;;;;10597946;27;20039;-74
2022/08/16 19:22:20;;;;;;;;;;;;;;;;;;10592428;27;20067;-76
2022/08/16 19:27:34;;;;;;;11.38;6.40;;;;;;;;;;10576480;27;19919;-75
2022/08/16 19:32:38;;;;;;;14.88;7.18;;;;;;;;;;10579701;28;20039;-76
2022/08/16 19:37:41;;;;;;;14.75;6.78;;;;;;;;;;10573216;28;20042;-74
2022/08/16 19:42:49;;;;;;;10.25;4.50;;;;;;;;;;10582576;28;20289;-72
2022/08/16 19:47:53;;;;;;;10.18;5.05;;;;;;;;;;10582718;28;20047;-71
2022/08/16 19:53:00;;;;;;;10.07;4.55;;;;;;;;;;10576583;27;20073;-71
2022/08/16 19:58:16;;;;;;;10.27;4.40;;;;;;;;;;10580094;27;20398;-72
2022/08/16 20:03:21;;;;;;;9.05;4.45;;;;;;;;;;10597730;27;20043;-73
2022/08/16 20:08:25;;;;;;;14.48;7.18;;;;;;;;;;10584788;28;20500;-73
2022/08/16 20:13:30;;;;;;;12.00;5.28;;;;;;;;;;10575509;28;20096;-74
2022/08/16 20:18:33;;;;;;;8.43;4.60;;;;;;;;;;10577098;28;20035;-74
2022/08/16 20:23:37;;;;;;;25.92;12.40;;;;;;;;;;10572676;28;20046;-73
2022/08/16 20:28:42;;;;;;;10.25;5.10;;;;;;;;;;10580539;28;20111;-74
2022/08/16 20:33:57;;;;;;;9.57;4.95;;;;;;;;;;10584762;28;20073;-73
2022/08/16 20:39:03;;;;;;;7.88;3.92;;;;;;;;;;10579047;28;20035;-73
2022/08/16 20:44:08;;;;;;;10.57;5.80;;;;;;;;;;10583005;28;20085;-73
2022/08/16 20:49:11;;;;;;;10.68;5.82;;;;;;;;;;10589157;27;20059;-75
2022/08/16 20:54:14;;;;;;;12.60;6.18;;;;;;;;;;10589261;28;20126;-74
2022/08/16 20:59:18;;;;;;;9.48;4.95;;;;;;;;;;10598944;27;20089;-74
2022/08/16 21:04:24;;;;;;;9.77;5.40;;;;;;;;;;10581745;27;20403;-74
2022/08/16 21:09:27;;;;;;;9.82;4.78;;;;;;;;;;10598007;27;20032;-74
2022/08/16 21:14:36;;;;;;;10.60;5.00;;;;;;;;;;10586460;27;20057;-73
2022/08/16 21:19:39;;;;;;;8.00;5.13;;;;;;;;;;10596122;27;20047;-74
2022/08/16 21:24:43;;;;;;;10.82;5.00;;;;;;;;;;10586863;28;20035;-74
2022/08/16 21:29:51;;;;;;;9.73;4.60;;;;;;;;;;10596992;27;20066;-73
2022/08/16 21:34:57;;;;;;;8.38;4.38;;;;;;;;;;10589292;27;20040;-73
2022/08/16 21:40:01;;;;;;;9.55;5.05;;;;;;;;;;10591006;27;20422;-73
2022/08/16 21:45:07;;;;;;;10.43;4.43;;;;;;;;;;10591816;27;20062;-73
2022/08/16 21:50:12;;;;;;;7.35;4.25;;;;;;;;;;10593891;27;20032;-74
2022/08/16 21:55:16;;;;;;;9.85;4.30;;;;;;;;;;10597152;27;20067;-74
2022/08/16 22:00:21;;;;;;;7.28;4.22;;;;;;;;;;10582102;27;20081;-74
2022/08/16 22:05:24;;;;;;;7.45;4.68;;;;;;;;;;10587371;27;20116;-74
2022/08/16 22:10:27;;;;;;;;;;;;;;;;;;10593710;27;20095;-74
2022/08/16 22:15:53;;;;;;;9.27;4.68;;;;;;;;;;10599596;27;19945;-73
2022/08/16 22:20:56;;;;;;;8.88;4.80;;;;;;;;;;10584586;27;20035;-73
2022/08/16 22:25:59;;;;;;;11.05;5.07;;;;;;;;;;10603277;27;20043;-74
2022/08/16 22:31:03;;;;;;;10.90;4.97;;;;;;;;;;10590621;28;20111;-73
2022/08/16 22:36:08;;;;;;;9.30;4.82;;;;;;;;;;10597519;27;20039;-73
2022/08/16 22:41:12;;;;;;;10.00;4.55;;;;;;;;;;10589340;27;20282;-73
2022/08/16 22:46:20;;;;;;;11.00;4.68;;;;;;;;;;10588132;27;20066;-72
2022/08/16 22:51:24;;;;;;;8.77;4.35;;;;;;;;;;10588385;27;20039;-73
2022/08/16 22:56:28;;;;;;;7.63;4.50;;;;;;;;;;10582627;27;20050;-74
2022/08/16 23:01:31;;;;;;;;;;;;;;;;;;10586464;27;20073;-73
2022/08/16 23:06:36;;;;;;;7.45;4.50;;;;;;;;;;10595068;27;19927;-73
2022/08/16 23:11:40;;;;;;;7.47;4.40;;;;;;;;;;10581669;27;20471;-72
2022/08/16 23:16:45;;;;;;;10.20;4.82;;;;;;;;;;10584897;27;20151;-72
2022/08/16 23:21:50;;;;;;;7.45;4.35;;;;;;;;;;10591248;27;20113;-72
2022/08/16 23:26:53;;;;;;;8.60;4.93;;;;;;;;;;10589461;27;20107;-74
2022/08/16 23:31:57;;;;;;;10.77;5.05;;;;;;;;;;10588342;27;20043;-73
2022/08/16 23:37:03;;;;;;;7.97;4.50;;;;;;;;;;10584880;27;20039;-72
2022/08/16 23:42:11;;;;;;;7.68;4.63;;;;;;;;;;10574313;28;20070;-74
2022/08/16 23:47:14;;;;;;;8.88;5.00;;;;;;;;;;10586244;28;20068;-73
2022/08/16 23:52:21;;;;;;;9.25;4.93;;;;;;;;;;10584474;27;20062;-74
2022/08/16 23:57:43;;;;;;;7.72;4.63;;;;;;;;;;10589065;28;20032;-72
